Time;durP1;ratioP1;P1;durP2;ratioP2;P2;SDS_P1;SDS_P2;PMS_P1;PMS_P2;Temp;Humidity;BMP_temperature;BMP_pressure;BME280_temperature;BME280_humidity;BME280_pressure;Samples;Min_cycle;Max_cycle;Signal;HPM_P1;HPM_P2
2023/01/07 00:01:25;;;;;;;9.13;5.53;;;;;;;5.16;90.19;62527.00;5042428;28;20222;-77
2023/01/07 00:03:55;;;;;;;8.38;5.20;;;;;;;5.00;90.72;62515.56;5051097;28;20261;-77
2023/01/07 00:06:25;;;;;;;8.98;5.55;;;;;;;4.84;92.31;62504.13;5047638;28;20569;-77
2023/01/07 00:08:54;;;;;;;7.75;5.28;;;;;;;4.65;93.25;62477.00;5028085;28;20202;-78
2023/01/07 00:11:24;;;;;;;9.27;5.38;;;;;;;4.71;93.33;62483.69;5028080;28;20234;-79
2023/01/07 00:13:53;;;;;;;6.05;4.93;;;;;;;4.53;94.54;62469.69;5029710;28;20222;-77
2023/01/07 00:16:22;;;;;;;10.15;5.78;;;;;;;4.55;94.65;62469.75;5046520;28;20240;-77
2023/01/07 00:18:50;;;;;;;10.02;5.10;;;;;;;4.66;95.49;62481.06;5050660;28;20202;-78
2023/01/07 00:21:17;;;;;;;6.88;4.75;;;;;;;4.61;95.33;62475.41;5048104;28;20218;-78
2023/01/07 00:23:45;;;;;;;6.50;4.22;;;;;;;4.63;96.44;62474.94;5036019;28;20245;-77
2023/01/07 00:26:14;;;;;;;8.18;4.85;;;;;;;4.52;96.95;62469.19;5027692;28;20228;-76
2023/01/07 00:28:46;;;;;;;4.88;4.35;;;;;;;4.47;96.88;62466.03;5043868;28;20265;-77
2023/01/07 00:31:14;;;;;;;7.93;5.30;;;;;;;4.42;96.43;62458.38;5049368;28;20233;-77
2023/01/07 00:33:50;;;;;;;5.15;4.65;;;;;;;4.44;95.59;62458.44;5047204;28;20206;-77
2023/01/07 00:36:18;;;;;;;10.30;5.47;;;;;;;4.30;95.56;62443.50;5046822;28;20221;-76
2023/01/07 00:38:44;;;;;;;11.52;5.70;;;;;;;4.08;95.91;62420.88;5042967;28;20198;-78
2023/01/07 00:41:11;;;;;;;6.75;5.68;;;;;;;3.94;96.29;62406.97;5048166;28;20221;-77
2023/01/07 00:43:38;;;;;;;9.85;5.35;;;;;;;3.72;97.75;62384.34;5049829;28;20198;-77
2023/01/07 00:46:06;;;;;;;4.88;4.38;;;;;;;3.70;97.65;62384.28;5047983;28;20280;-77
2023/01/07 00:48:34;;;;;;;8.77;5.30;;;;;;;3.45;98.71;62354.56;5033296;28;20203;-77
2023/01/07 00:51:00;;;;;;;9.85;5.22;;;;;;;3.45;99.75;62351.56;5026676;28;20238;-78
2023/01/07 00:53:29;;;;;;;5.30;4.80;;;;;;;3.36;99.73;62347.34;5025877;28;20223;-78
2023/01/07 00:55:56;;;;;;;8.40;4.72;;;;;;;3.32;99.90;62343.75;5041980;28;20225;-79
2023/01/07 00:58:24;;;;;;;7.22;5.15;;;;;;;3.38;99.88;62344.38;5037961;28;20202;-78
2023/01/07 01:00:56;;;;;;;7.10;4.90;;;;;;;3.40;99.77;62351.97;5049186;28;20221;-78
2023/01/07 01:03:25;;;;;;;6.57;4.80;;;;;;;3.35;99.61;62344.31;5047128;28;20202;-77
2023/01/07 01:05:52;;;;;;;5.90;4.35;;;;;;;3.27;99.83;62333.56;5039423;28;20223;-78
2023/01/07 01:08:19;;;;;;;6.40;4.95;;;;;;;3.20;100.00;62330.88;5027049;28;20195;-77
2023/01/07 01:10:46;;;;;;;5.93;4.78;;;;;;;3.19;100.00;62329.88;5028740;28;20227;-79
2023/01/07 01:13:14;;;;;;;8.75;4.82;;;;;;;3.11;100.00;62316.59;5037024;28;20381;-76
2023/01/07 01:15:42;;;;;;;7.00;4.78;;;;;;;3.04;100.00;62314.44;5046633;28;20248;-78
2023/01/07 01:18:09;;;;;;;7.13;4.40;;;;;;;3.01;100.00;62308.84;5048052;28;20202;-78
2023/01/07 01:20:37;;;;;;;5.90;4.38;;;;;;;3.05;100.00;62315.47;5046505;28;20197;-78
2023/01/07 01:23:04;;;;;;;9.13;4.78;;;;;;;3.02;100.00;62312.88;5046282;28;20280;-79
2023/01/07 01:25:31;;;;;;;9.57;5.03;;;;;;;3.02;100.00;62309.88;5046360;28;20220;-77
2023/01/07 01:27:58;;;;;;;11.18;5.53;;;;;;;2.89;100.00;62299.00;5048631;28;20206;-78
2023/01/07 01:30:25;;;;;;;6.22;4.65;;;;;;;2.85;100.00;62292.38;5049167;28;20269;-77
2023/01/07 01:32:52;;;;;;;10.52;5.07;;;;;;;2.90;100.00;62298.03;5040833;28;20477;-77
2023/01/07 01:35:19;;;;;;;6.47;4.78;;;;;;;2.87;100.00;62292.44;5026620;28;20199;-77
2023/01/07 01:37:47;;;;;;;5.72;5.07;;;;;;;2.81;100.00;62288.28;5026302;28;20285;-77
2023/01/07 01:40:14;;;;;;;6.13;4.47;;;;;;;2.84;100.00;62291.88;5036516;28;20198;-78
2023/01/07 01:42:41;;;;;;;9.55;4.97;;;;;;;2.77;100.00;62286.69;5049439;28;20268;-76
2023/01/07 01:45:11;;;;;;;6.05;4.60;;;;;;;2.98;100.00;62305.75;5047501;28;20193;-77
2023/01/07 01:47:43;;;;;;;11.00;5.43;;;;;;;2.88;100.00;62295.97;5046033;28;20229;-78
2023/01/07 01:50:17;;;;;;;8.60;5.15;;;;;;;2.82;100.00;62292.34;5044295;28;20213;-77
2023/01/07 01:52:51;;;;;;;6.93;5.15;;;;;;;2.72;100.00;62281.56;5027189;28;20243;-78
2023/01/07 01:55:23;;;;;;;6.25;4.45;;;;;;;2.70;100.00;62279.50;5026401;28;20561;-79
2023/01/07 01:57:53;;;;;;;6.10;5.47;;;;;;;2.62;100.00;62271.81;5034144;28;20213;-78
2023/01/07 02:00:20;;;;;;;12.30;5.60;;;;;;;2.65;100.00;62271.84;5044937;28;20205;-77
2023/01/07 02:02:49;;;;;;;9.68;5.50;;;;;;;2.63;100.00;62272.81;5046096;28;20218;-77
2023/01/07 02:05:17;;;;;;;9.98;6.22;;;;;;;2.70;100.00;62277.50;5046789;28;20212;-78
2023/01/07 02:07:44;;;;;;;7.07;5.68;;;;;;;2.67;100.00;62271.38;5046425;28;20268;-78
2023/01/07 02:10:17;;;;;;;10.05;5.07;;;;;;;2.72;100.00;62279.56;5045108;28;20403;-77
2023/01/07 02:12:56;;;;;;;8.68;4.75;;;;;;;2.77;100.00;62289.19;5050003;28;20253;-78
2023/01/07 02:15:32;;;;;;;10.23;4.95;;;;;;;2.80;100.00;62292.78;5042618;28;20241;-78
2023/01/07 02:18:13;;;;;;;5.60;4.40;;;;;;;2.87;100.00;62294.44;5029605;28;20198;-78
2023/01/07 02:20:54;;;;;;;5.15;3.92;;;;;;;2.93;100.00;62298.09;5045646;28;20265;-77
2023/01/07 02:23:54;;;;;;;8.70;4.22;;;;;;;2.99;100.00;62306.78;5045337;28;20220;-78
2023/01/07 02:27:11;;;;;;;11.55;4.88;;;;;;;3.05;100.00;62310.44;5047338;28;20255;-77
2023/01/07 02:30:25;;;;;;;5.30;3.33;;;;;;;3.13;100.00;62323.69;5025663;28;20538;-78
2023/01/07 02:33:14;;;;;;;3.78;3.40;;;;;;;3.14;100.00;62327.25;5024960;28;20253;-77
2023/01/07 02:35:58;;;;;;;3.67;3.40;;;;;;;3.22;100.00;62328.44;5025595;28;20190;-76
2023/01/07 02:38:34;;;;;;;3.60;3.17;;;;;;;3.36;100.00;62345.34;5024721;28;20198;-77
2023/01/07 02:41:10;;;;;;;4.45;2.95;;;;;;;3.41;100.00;62350.47;5028870;28;20233;-77
2023/01/07 02:43:42;;;;;;;5.35;3.55;;;;;;;3.55;100.00;62364.34;5046544;28;20197;-77
2023/01/07 02:46:16;;;;;;;3.95;3.58;;;;;;;3.59;100.00;62368.47;5045125;28;20225;-77
2023/01/07 02:48:46;;;;;;;3.65;3.35;;;;;;;3.49;100.00;62358.19;5045090;28;20209;-78
2023/01/07 02:51:13;;;;;;;4.75;3.65;;;;;;;3.61;100.00;62380.59;5031967;28;20234;-77
2023/01/07 02:53:43;;;;;;;4.95;3.47;;;;;;;3.65;100.00;62376.63;5025337;28;20212;-78
2023/01/07 02:56:23;;;;;;;4.20;2.88;;;;;;;3.62;100.00;62373.56;5028952;28;20482;-77
2023/01/07 02:59:31;;;;;;;2.90;2.38;;;;;;;3.60;100.00;62369.50;5027490;28;20502;-77
2023/01/07 03:02:18;;;;;;;3.28;2.63;;;;;;;3.62;100.00;62373.56;5034632;28;20288;-77
2023/01/07 03:05:02;;;;;;;3.45;2.35;;;;;;;3.68;100.00;62379.72;5045751;28;20186;-78
2023/01/07 03:07:41;;;;;;;4.18;2.75;;;;;;;3.63;100.00;62377.63;5046499;28;20217;-78
2023/01/07 03:10:18;;;;;;;3.95;2.60;;;;;;;3.61;100.00;62372.53;5044577;28;20190;-77
2023/01/07 03:12:51;;;;;;;3.78;2.83;;;;;;;3.55;100.00;62364.84;5047108;28;20649;-77
2023/01/07 03:15:23;;;;;;;3.92;2.95;;;;;;;3.58;100.00;62372.47;5046747;28;20187;-77
2023/01/07 03:17:59;;;;;;;4.57;2.60;;;;;;;3.58;100.00;62364.91;5044351;28;20201;-77
2023/01/07 03:20:30;;;;;;;3.53;2.60;;;;;;;3.51;100.00;62363.28;5050121;28;20194;-77
2023/01/07 03:22:58;;;;;;;4.50;2.90;;;;;;;3.38;100.00;62344.38;5049377;28;20248;-78
2023/01/07 03:25:28;;;;;;;4.50;3.17;;;;;;;3.41;100.00;62353.00;5050705;28;20204;-79
2023/01/07 03:27:57;;;;;;;7.72;2.58;;;;;;;3.25;100.00;62336.03;5050590;28;20227;-78
2023/01/07 03:30:25;;;;;;;5.22;3.38;;;;;;;3.36;100.00;62347.34;5049696;28;20193;-77
2023/01/07 03:32:57;;;;;;;6.00;3.28;;;;;;;3.38;100.00;62344.88;5049725;28;20229;-77
2023/01/07 03:35:25;;;;;;;10.40;3.60;;;;;;;3.32;100.00;62346.25;5048672;28;20208;-78
2023/01/07 03:37:54;;;;;;;5.75;3.75;;;;;;;3.26;100.00;62337.06;5049398;28;20212;-78
2023/01/07 03:40:22;;;;;;;4.13;3.22;;;;;;;3.27;100.00;62340.59;5051780;28;20370;-78
2023/01/07 03:42:48;;;;;;;3.88;3.47;;;;;;;3.21;100.00;62329.91;5050614;28;20284;-77
2023/01/07 03:45:18;;;;;;;3.10;2.90;;;;;;;3.16;100.00;62329.28;5049888;28;20213;-77
2023/01/07 03:47:48;;;;;;;6.10;4.13;;;;;;;3.05;100.00;62318.50;5049893;28;20281;-78
2023/01/07 03:50:15;;;;;;;6.03;4.20;;;;;;;3.12;100.00;62323.16;5049559;28;20248;-77
2023/01/07 03:52:42;;;;;;;5.35;4.40;;;;;;;3.08;100.00;62318.53;5049865;28;20233;-79
2023/01/07 03:55:12;;;;;;;6.90;4.97;;;;;;;3.07;100.00;62315.00;5030799;28;20203;-78
2023/01/07 03:57:39;;;;;;;6.70;4.82;;;;;;;3.04;100.00;62317.47;5030132;28;20219;-77
2023/01/07 04:00:09;;;;;;;8.38;4.90;;;;;;;2.89;100.00;62294.00;5029574;28;20274;-77
2023/01/07 04:02:36;;;;;;;7.93;5.15;;;;;;;2.84;100.00;62293.88;5029414;28;20222;-77
2023/01/07 04:05:04;;;;;;;6.85;5.60;;;;;;;2.80;100.00;62287.78;5030670;28;20253;-77
2023/01/07 04:07:30;;;;;;;8.68;5.18;;;;;;;2.70;100.00;62282.53;5028743;28;20215;-78
2023/01/07 04:09:57;;;;;;;8.45;5.63;;;;;;;2.75;100.00;62282.63;5030116;28;20229;-77
2023/01/07 04:12:26;;;;;;;8.13;5.15;;;;;;;2.72;100.00;62279.03;5029211;28;20483;-78
2023/01/07 04:14:53;;;;;;;7.03;4.85;;;;;;;2.66;100.00;62275.91;5033047;28;20365;-77
2023/01/07 04:17:20;;;;;;;12.25;5.50;;;;;;;2.68;100.00;62277.94;5047656;28;20368;-77
2023/01/07 04:19:47;;;;;;;8.82;4.63;;;;;;;2.75;100.00;62284.63;5050135;28;20507;-78
2023/01/07 04:22:14;;;;;;;5.68;4.25;;;;;;;2.77;100.00;62282.19;5029391;28;20226;-78
2023/01/07 04:24:41;;;;;;;9.38;4.75;;;;;;;2.76;100.00;62288.69;5031528;28;20222;-77
2023/01/07 04:27:09;;;;;;;9.80;4.95;;;;;;;2.74;100.00;62283.59;5028410;28;20291;-78
2023/01/07 04:29:37;;;;;;;10.02;4.85;;;;;;;2.70;100.00;62274.97;5032155;28;20573;-78
2023/01/07 04:32:04;;;;;;;10.30;5.03;;;;;;;2.64;100.00;62275.84;5048181;28;20229;-78
2023/01/07 04:34:32;;;;;;;10.48;4.38;;;;;;;2.63;100.00;62274.81;5049852;28;20197;-77
2023/01/07 04:36:58;;;;;;;4.80;3.92;;;;;;;2.55;100.00;62262.09;5039862;28;20223;-77
2023/01/07 04:39:25;;;;;;;5.45;4.53;;;;;;;2.51;100.00;62260.50;5030149;28;20195;-77
2023/01/07 04:41:52;;;;;;;8.68;4.90;;;;;;;2.48;100.00;62251.88;5027397;28;20536;-78
2023/01/07 04:44:19;;;;;;;8.80;4.25;;;;;;;2.55;100.00;62261.56;5028236;28;20199;-78
2023/01/07 04:46:47;;;;;;;4.85;4.07;;;;;;;2.53;100.00;62262.03;5041754;28;20260;-78
2023/01/07 04:49:14;;;;;;;9.55;4.63;;;;;;;2.55;100.00;62264.09;5047389;28;20193;-78
2023/01/07 04:51:41;;;;;;;3.85;3.47;;;;;;;2.45;100.00;62251.31;5047654;28;20222;-79
2023/01/07 04:54:08;;;;;;;4.28;3.90;;;;;;;2.50;100.00;62256.97;5048615;28;20202;-78
2023/01/07 04:56:35;;;;;;;5.63;3.92;;;;;;;2.49;100.00;62253.41;5047311;28;20576;-78
2023/01/07 04:59:02;;;;;;;5.47;3.38;;;;;;;2.49;100.00;62260.94;5048293;28;20202;-78
2023/01/07 05:01:31;;;;;;;3.92;3.15;;;;;;;2.47;100.00;62250.84;5049608;28;20280;-79
2023/01/07 05:04:00;;;;;;;8.73;4.15;;;;;;;2.51;100.00;62260.50;5048413;28;20230;-79
2023/01/07 05:06:26;;;;;;;4.45;4.03;;;;;;;2.48;100.00;62257.41;5048985;28;20544;-77
2023/01/07 05:08:53;;;;;;;3.83;3.35;;;;;;;2.44;100.00;62258.31;5047577;28;20198;-77
2023/01/07 05:11:21;;;;;;;4.82;3.40;;;;;;;2.45;100.00;62253.81;5046110;28;20276;-78
2023/01/07 05:13:48;;;;;;;5.20;3.08;;;;;;;2.43;100.00;62249.25;5048572;28;20258;-77
2023/01/07 05:16:15;;;;;;;5.65;3.25;;;;;;;2.37;100.00;62248.63;5043258;28;20496;-78
2023/01/07 05:18:42;;;;;;;3.55;2.58;;;;;;;2.46;100.00;62254.84;5027370;28;20245;-76
2023/01/07 05:21:11;;;;;;;5.70;2.80;;;;;;;2.46;100.00;62247.81;5029024;28;20242;-78
2023/01/07 05:23:38;;;;;;;2.97;2.78;;;;;;;2.41;100.00;62252.22;5027360;28;20199;-78
2023/01/07 05:26:05;;;;;;;3.05;2.50;;;;;;;2.41;100.00;62250.22;5029120;28;20222;-78
2023/01/07 05:28:32;;;;;;;3.75;2.47;;;;;;;2.42;100.00;62248.72;5028045;28;20447;-77
2023/01/07 05:30:59;;;;;;;2.55;2.35;;;;;;;2.40;100.00;62248.69;5027449;28;20219;-77
2023/01/07 05:33:26;;;;;;;3.50;2.85;;;;;;;2.40;100.00;62246.16;5028328;28;20231;-78
2023/01/07 05:35:53;;;;;;;2.50;2.30;;;;;;;2.33;100.00;62239.47;5042838;28;20389;-78
2023/01/07 05:38:21;;;;;;;3.10;2.65;;;;;;;2.32;100.00;62240.97;5047327;28;20194;-77
2023/01/07 05:40:48;;;;;;;8.10;3.75;;;;;;;2.32;100.00;62244.00;5050544;28;20217;-79
2023/01/07 05:43:15;;;;;;;8.55;3.63;;;;;;;2.40;100.00;62251.69;5047821;28;20212;-77
2023/01/07 05:45:43;;;;;;;6.97;5.18;;;;;;;2.39;100.00;62250.69;5030974;28;20218;-77
2023/01/07 05:48:10;;;;;;;6.65;3.47;;;;;;;2.40;100.00;62251.19;5027673;28;20202;-77
2023/01/07 05:50:37;;;;;;;7.22;3.47;;;;;;;2.40;100.00;62246.66;5028940;28;20202;-78
2023/01/07 05:53:04;;;;;;;4.50;2.78;;;;;;;2.37;100.00;62246.09;5035942;28;20431;-78
2023/01/07 05:55:32;;;;;;;2.80;2.55;;;;;;;2.44;100.00;62250.78;5050661;28;20198;-77
2023/01/07 05:57:59;;;;;;;4.38;2.28;;;;;;;2.45;100.00;62254.31;5047794;28;20209;-77
2023/01/07 06:00:26;;;;;;;4.07;2.88;;;;;;;2.44;100.00;62250.78;5047555;28;20518;-78
2023/01/07 06:02:53;;;;;;;2.95;2.25;;;;;;;2.47;100.00;62255.88;5035176;28;20206;-78
2023/01/07 06:05:21;;;;;;;3.25;2.40;;;;;;;2.48;100.00;62259.41;5027714;28;20238;-78
2023/01/07 06:07:48;;;;;;;2.22;2.13;;;;;;;2.54;100.00;62260.56;5027467;28;20222;-79
2023/01/07 06:10:15;;;;;;;4.85;2.55;;;;;;;2.59;100.00;62266.19;5029508;28;20195;-78
2023/01/07 06:12:44;;;;;;;2.00;1.80;;;;;;;2.47;100.00;62256.38;5046842;28;20233;-78
2023/01/07 06:15:11;;;;;;;5.93;2.42;;;;;;;2.53;100.00;62254.50;5047280;28;20499;-78
2023/01/07 06:17:39;;;;;;;5.88;3.28;;;;;;;2.51;100.00;62254.94;5048453;28;20226;-78
2023/01/07 06:20:08;;;;;;;4.47;2.83;;;;;;;2.51;100.00;62257.47;5039622;28;20213;-78
2023/01/07 06:22:35;;;;;;;5.75;2.75;;;;;;;2.60;100.00;62269.22;5027915;28;20221;-79
2023/01/07 06:25:01;;;;;;;7.20;3.53;;;;;;;2.62;100.00;62274.31;5028875;28;20198;-77
2023/01/07 06:27:28;;;;;;;4.07;2.92;;;;;;;2.63;100.00;62274.81;5027148;28;20223;-78
2023/01/07 06:29:56;;;;;;;3.53;3.30;;;;;;;2.69;100.00;62278.47;5027803;28;20258;-79
2023/01/07 06:32:23;;;;;;;6.78;3.08;;;;;;;2.83;100.00;62292.88;5026601;28;20459;-79
2023/01/07 06:34:50;;;;;;;3.90;3.60;;;;;;;2.84;100.00;62294.41;5027008;28;20199;-78
2023/01/07 06:37:18;;;;;;;3.03;2.80;;;;;;;2.92;100.00;62299.59;5027993;28;20223;-77
2023/01/07 06:39:45;;;;;;;3.47;2.97;;;;;;;2.98;100.00;62306.28;5046058;28;20202;-79
2023/01/07 06:42:12;;;;;;;4.60;3.17;;;;;;;3.01;100.00;62311.34;5033989;28;20248;-77
2023/01/07 06:44:39;;;;;;;3.65;3.35;;;;;;;3.04;100.00;62314.44;5039953;28;20477;-78
2023/01/07 06:47:07;;;;;;;13.32;5.72;;;;;;;3.12;100.00;62320.66;5041089;28;20234;-78
2023/01/07 06:49:34;;;;;;;8.15;4.22;;;;;;;3.18;100.00;62329.34;5039314;28;20194;-78
2023/01/07 06:52:01;;;;;;;4.90;4.50;;;;;;;3.16;100.00;62329.81;5036949;28;20522;-79
2023/01/07 06:54:28;;;;;;;7.72;3.60;;;;;;;3.28;100.00;62336.59;5035344;28;20257;-79
2023/01/07 06:56:55;;;;;;;5.75;5.05;;;;;;;3.39;100.00;62350.41;5040309;28;20245;-78
2023/01/07 06:59:22;;;;;;;9.63;4.90;;;;;;;3.32;100.00;62343.75;5035068;28;20391;-79
2023/01/07 07:01:49;;;;;;;6.40;4.72;;;;;;;3.27;100.00;62330.53;5026512;28;20539;-80
2023/01/07 07:04:17;;;;;;;13.50;5.80;;;;;;;3.17;100.00;62328.31;5046773;28;20210;-78
2023/01/07 07:06:46;;;;;;;8.90;5.68;;;;;;;3.29;100.00;62338.16;5046553;28;20280;-79
2023/01/07 07:09:13;;;;;;;10.25;6.53;;;;;;;3.36;100.00;62347.34;5043349;28;20225;-79
2023/01/07 07:11:40;;;;;;;7.50;5.70;;;;;;;3.39;100.00;62350.41;5033612;28;20285;-78
2023/01/07 07:14:08;;;;;;;9.00;6.22;;;;;;;3.47;100.00;62356.63;5043501;28;20225;-79
2023/01/07 07:16:35;;;;;;;8.63;6.38;;;;;;;3.71;100.00;62378.28;5036252;28;20281;-79
2023/01/07 07:19:02;;;;;;;8.77;5.90;;;;;;;3.85;100.00;62399.75;5035151;28;20217;-79
2023/01/07 07:21:31;;;;;;;10.13;6.07;;;;;;;3.96;100.00;62404.00;5031461;28;20281;-80
2023/01/07 07:23:59;;;;;;;10.43;6.70;;;;;;;4.32;100.00;62445.56;5041671;28;20383;-78
2023/01/07 07:26:26;;;;;;;9.50;6.93;;;;;;;4.80;100.00;62494.47;5042199;28;20218;-80
2023/01/07 07:28:53;;;;;;;7.72;6.65;;;;;;;5.02;100.00;62522.16;5035573;28;20202;-78
2023/01/07 07:31:19;;;;;;;8.75;5.20;;;;;;;5.07;100.00;62517.22;5029567;28;20226;-77
2023/01/07 07:33:46;;;;;;;7.63;5.80;;;;;;;4.94;100.00;62509.38;5042501;28;20501;-79
2023/01/07 07:36:14;;;;;;;9.60;6.35;;;;;;;4.99;100.00;62514.53;5046718;28;20281;-79
2023/01/07 07:38:42;;;;;;;10.85;7.00;;;;;;;4.78;100.00;62487.34;5049936;28;20224;-79
2023/01/07 07:41:09;;;;;;;8.45;6.22;;;;;;;4.83;100.00;62497.56;5046195;28;20222;-78
2023/01/07 07:43:36;;;;;;;11.90;6.13;;;;;;;4.81;100.00;62492.97;5044255;28;20265;-80
2023/01/07 07:46:03;;;;;;;8.75;5.63;;;;;;;4.75;100.00;62489.81;5026748;28;20261;-78
2023/01/07 07:48:31;;;;;;;7.30;5.50;;;;;;;4.64;100.00;62481.53;5045152;28;20198;-79
2023/01/07 07:50:58;;;;;;;9.25;5.90;;;;;;;4.73;100.00;62485.75;5050431;28;20241;-78
2023/01/07 07:53:25;;;;;;;9.50;6.72;;;;;;;4.82;100.00;62491.47;5047604;28;20244;-80
2023/01/07 07:55:54;;;;;;;17.42;6.65;;;;;;;4.71;100.00;62483.19;5047843;28;20214;-81
2023/01/07 07:58:21;;;;;;;12.48;6.82;;;;;;;4.76;100.00;62485.31;5050347;28;20197;-79
2023/01/07 08:00:48;;;;;;;9.00;6.63;;;;;;;4.89;100.00;62506.25;5050201;28;20249;-79
2023/01/07 08:03:15;;;;;;;10.90;7.28;;;;;;;4.92;100.00;62504.28;5051197;28;20221;-82
2023/01/07 08:05:43;;;;;;;9.75;6.45;;;;;;;4.80;100.00;62494.47;5053581;28;20205;-77
2023/01/07 08:08:13;;;;;;;8.15;6.45;;;;;;;4.81;100.00;62495.50;5051860;28;20209;-80
2023/01/07 08:10:40;;;;;;;12.95;7.50;;;;;;;4.85;100.00;62497.09;5053124;28;20198;-79
2023/01/07 08:13:09;;;;;;;15.65;7.10;;;;;;;4.66;100.00;62480.56;5053877;28;20410;-79
2023/01/07 08:15:49;;;;;;;16.35;6.88;;;;;;;4.87;100.00;62504.19;5055242;28;20206;-79
2023/01/07 08:18:16;;;;;;;12.40;6.35;;;;;;;5.07;100.00;62522.78;5054527;28;20220;-79
2023/01/07 08:20:42;;;;;;;10.85;7.00;;;;;;;5.07;100.00;62525.31;5051716;28;20220;-80
2023/01/07 08:23:10;;;;;;;7.80;6.38;;;;;;;5.21;100.00;62537.19;5030931;28;20226;-78
2023/01/07 08:25:40;;;;;;;8.68;6.97;;;;;;;5.22;100.00;62538.22;5029471;28;20218;-79
2023/01/07 08:28:11;;;;;;;9.15;6.97;;;;;;;5.33;100.00;62549.53;5030573;28;20534;-78
2023/01/07 08:30:39;;;;;;;9.05;7.78;;;;;;;5.24;100.00;62537.75;5041428;28;20198;-79
2023/01/07 08:33:07;;;;;;;10.10;6.47;;;;;;;5.37;100.00;62553.66;5051499;28;20242;-80
2023/01/07 08:35:35;;;;;;;11.65;7.03;;;;;;;5.41;100.00;62557.28;5051580;28;20252;-79
2023/01/07 08:38:03;;;;;;;12.18;7.38;;;;;;;5.46;99.51;62564.94;5050723;28;20257;-78
2023/01/07 08:40:30;;;;;;;14.10;10.73;;;;;;;5.37;99.17;62550.63;5053246;28;20262;-80
2023/01/07 08:42:59;;;;;;;16.55;9.02;;;;;;;5.49;99.58;62565.50;5054555;28;20206;-79
2023/01/07 08:45:29;;;;;;;11.60;7.65;;;;;;;5.59;98.38;62573.81;5052529;28;20198;-79
2023/01/07 08:47:57;;;;;;;14.27;8.90;;;;;;;5.69;97.94;62583.59;5050897;28;20194;-76
2023/01/07 08:50:28;;;;;;;10.40;8.35;;;;;;;5.68;97.59;62583.09;5049617;28;20519;-78
2023/01/07 08:52:59;;;;;;;11.85;8.10;;;;;;;5.82;97.37;62600.06;5050854;28;20202;-79
2023/01/07 08:55:26;;;;;;;12.27;7.80;;;;;;;5.93;96.44;62610.88;5041904;28;20201;-78
2023/01/07 08:57:53;;;;;;;12.65;7.70;;;;;;;5.95;96.80;62615.47;5043016;28;20222;-78
2023/01/07 09:00:20;;;;;;;10.73;8.25;;;;;;;5.90;95.95;62605.28;5048354;28;20209;-78
2023/01/07 09:02:49;;;;;;;12.73;8.98;;;;;;;6.16;96.56;62634.06;5050275;28;20289;-79
2023/01/07 09:05:16;;;;;;;10.90;8.00;;;;;;;6.24;94.78;62642.84;5046384;28;20289;-77
2023/01/07 09:07:43;;;;;;;10.30;7.75;;;;;;;6.22;94.44;62640.25;5050647;28;20240;-78
2023/01/07 09:10:10;;;;;;;10.55;7.20;;;;;;;6.40;93.72;62656.28;5038931;28;20214;-77
2023/01/07 09:12:40;;;;;;;9.45;7.10;;;;;;;6.44;92.56;62665.97;5029191;28;20226;-79
2023/01/07 09:15:08;;;;;;;11.27;7.18;;;;;;;6.65;91.74;62684.59;5046527;28;20272;-78
2023/01/07 09:17:45;;;;;;;;;;;;;;;;;;;;;
2023/01/07 09:20:18;;;;;;;11.18;7.78;;;;;;;6.84;90.52;62704.19;5047157;28;20225;-77
2023/01/07 09:22:45;;;;;;;11.13;7.65;;;;;;;6.94;89.89;62715.03;5050271;28;20222;-78
2023/01/07 09:25:13;;;;;;;14.10;7.70;;;;;;;7.02;87.90;62720.25;5048290;28;20202;-79
2023/01/07 09:27:41;;;;;;;19.33;8.18;;;;;;;7.22;87.42;62745.94;5038011;28;20272;-80
2023/01/07 09:30:09;;;;;;;10.57;7.60;;;;;;;7.35;86.72;62756.81;5028495;28;20200;-78
2023/01/07 09:32:36;;;;;;;13.55;7.97;;;;;;;7.32;85.68;62756.25;5028253;28;20219;-79
2023/01/07 09:35:04;;;;;;;11.60;8.25;;;;;;;7.48;85.37;62769.72;5032118;28;20233;-78
2023/01/07 09:37:32;;;;;;;11.18;6.75;;;;;;;7.66;85.00;62783.72;5030838;28;20218;-78
2023/01/07 09:40:00;;;;;;;8.98;6.40;;;;;;;7.68;83.44;62793.41;5028593;28;20247;-77
2023/01/07 09:42:35;;;;;;;9.27;7.03;;;;;;;7.74;82.43;62797.06;5030874;28;20218;-78
2023/01/07 09:45:13;;;;;;;9.52;7.65;;;;;;;7.86;81.58;62808.94;5045077;28;20209;-77
2023/01/07 09:47:44;;;;;;;10.73;6.85;;;;;;;7.83;81.15;62806.38;5047779;28;20217;-79
2023/01/07 09:50:19;;;;;;;11.70;6.97;;;;;;;7.95;81.79;62816.22;5049069;28;20206;-78
2023/01/07 09:52:50;;;;;;;11.25;7.07;;;;;;;7.99;80.50;62819.81;5047590;28;20225;-78
2023/01/07 09:55:23;;;;;;;10.10;7.07;;;;;;;7.85;80.71;62802.84;5046908;28;20234;-78
2023/01/07 09:57:50;;;;;;;10.70;7.57;;;;;;;7.96;81.17;62819.25;5046968;28;20202;-78
2023/01/07 10:00:20;;;;;;;13.70;8.07;;;;;;;8.13;80.90;62832.25;5046373;28;20201;-78
2023/01/07 10:03:13;;;;;;;11.63;7.63;;;;;;;8.40;78.84;62864.22;5049284;28;20240;-78
2023/01/07 10:05:50;;;;;;;9.25;8.18;;;;;;;8.43;78.35;62870.38;5047226;28;20198;-78
2023/01/07 10:08:30;;;;;;;11.27;8.43;;;;;;;8.53;78.61;62873.09;5048108;28;20213;-80
2023/01/07 10:11:05;;;;;;;14.90;8.52;;;;;;;8.55;78.30;62880.22;5046503;28;20221;-78
2023/01/07 10:13:42;;;;;;;9.30;7.20;;;;;;;8.52;76.27;62876.59;5044787;28;20213;-76
2023/01/07 10:16:18;;;;;;;16.42;8.20;;;;;;;8.11;79.49;62835.25;5032624;28;20222;-78
2023/01/07 10:18:59;;;;;;;11.50;7.70;;;;;;;8.42;79.46;62868.81;5028663;28;20266;-77
2023/01/07 10:21:33;;;;;;;11.57;8.38;;;;;;;8.49;77.61;62868.94;5033755;28;20224;-77
2023/01/07 10:24:09;;;;;;;9.02;7.25;;;;;;;8.42;78.09;62864.25;5046218;28;20504;-77
2023/01/07 10:26:38;;;;;;;18.02;7.32;;;;;;;8.44;78.09;62871.38;5045402;28;20455;-78
2023/01/07 10:29:11;;;;;;;10.68;7.97;;;;;;;8.68;77.88;62895.69;5031125;28;20210;-78
2023/01/07 10:31:38;;;;;;;16.80;9.15;;;;;;;8.45;78.15;62869.38;5045286;28;20218;-77
2023/01/07 10:34:13;;;;;;;12.68;8.90;;;;;;;8.70;78.16;62893.19;5047117;28;20284;-78
2023/01/07 10:36:51;;;;;;;15.80;7.45;;;;;;;8.56;78.53;62878.22;5043317;28;20218;-78
2023/01/07 10:39:27;;;;;;;10.82;8.00;;;;;;;8.91;76.42;62914.38;5038180;28;20244;-78
2023/01/07 10:42:03;;;;;;;14.13;9.48;;;;;;;9.07;75.77;62933.44;5031298;28;20234;-79
2023/01/07 10:45:03;;;;;;;12.57;8.00;;;;;;;9.04;75.25;62930.34;5038899;28;20231;-79
2023/01/07 10:47:43;;;;;;;11.27;7.63;;;;;;;9.06;74.38;62932.91;5028526;28;20226;-78
2023/01/07 10:50:35;;;;;;;9.75;7.60;;;;;;;9.11;74.42;62940.13;5040693;28;20198;-79
2023/01/07 10:53:16;;;;;;;12.63;8.10;;;;;;;9.15;73.99;62941.72;5035079;28;20435;-77
2023/01/07 10:55:56;;;;;;;10.23;7.35;;;;;;;9.10;75.10;62931.97;5036565;28;20248;-79
2023/01/07 10:58:25;;;;;;;16.02;7.90;;;;;;;9.22;73.79;62946.94;5042165;28;20221;-78
2023/01/07 11:00:52;;;;;;;11.57;8.00;;;;;;;9.17;74.23;62946.84;5040126;28;20218;-79
2023/01/07 11:03:22;;;;;;;16.92;9.10;;;;;;;9.20;73.82;62944.84;5043898;28;20262;-78
2023/01/07 11:05:53;;;;;;;15.15;9.15;;;;;;;9.24;73.05;62949.00;5033815;28;20317;-77
2023/01/07 11:08:29;;;;;;;13.80;9.00;;;;;;;9.30;72.65;62955.19;5035665;28;20655;-77
2023/01/07 11:10:58;;;;;;;10.05;8.35;;;;;;;9.17;73.71;62941.25;5044044;28;20256;-77
2023/01/07 11:13:29;;;;;;;11.88;8.45;;;;;;;9.18;72.82;62942.28;5046288;28;20201;-77
2023/01/07 11:15:58;;;;;;;14.48;8.68;;;;;;;9.07;73.02;62931.44;5043753;28;20222;-77
2023/01/07 11:18:30;;;;;;;10.38;7.97;;;;;;;9.13;73.63;62940.16;5026710;28;20207;-79
2023/01/07 11:20:59;;;;;;;11.35;8.35;;;;;;;9.35;73.05;62960.34;5027118;28;20229;-78
2023/01/07 11:23:36;;;;;;;16.55;10.10;;;;;;;9.65;70.81;62990.34;5027085;28;20250;-78
2023/01/07 11:26:16;;;;;;;16.10;9.68;;;;;;;9.64;70.33;62991.84;5040935;28;20222;-79
2023/01/07 11:28:50;;;;;;;16.42;11.18;;;;;;;9.71;69.43;63002.16;5048408;28;20232;-78
2023/01/07 11:31:18;;;;;;;13.48;10.02;;;;;;;9.64;69.39;62991.84;5045115;28;20221;-78
2023/01/07 11:33:48;;;;;;;18.17;9.27;;;;;;;9.53;69.89;62978.44;5043740;28;20428;-78
2023/01/07 11:36:15;;;;;;;22.25;10.73;;;;;;;9.50;70.94;62977.38;5047033;28;20214;-79
2023/01/07 11:38:42;;;;;;;16.92;9.95;;;;;;;9.73;69.71;63001.16;5051545;28;20226;-78
2023/01/07 11:41:22;;;;;;;14.25;10.13;;;;;;;10.00;68.71;63031.63;5050773;28;20244;-79
2023/01/07 11:43:51;;;;;;;13.93;10.02;;;;;;;10.01;67.35;63035.72;5037310;28;20546;-78
2023/01/07 11:46:20;;;;;;;13.85;10.48;;;;;;;10.09;67.40;63038.44;5031062;28;20218;-78
2023/01/07 11:48:51;;;;;;;15.65;10.48;;;;;;;10.15;66.94;63039.53;5031837;28;20199;-78